createdAt,value
2018-10-04T00:00:03.046Z,6.51
2018-10-04T00:02:30.860Z,6.56
2018-10-04T00:04:58.671Z,6.53
2018-10-04T00:07:26.451Z,6.45
2018-10-04T00:09:54.363Z,6.45
2018-10-04T00:12:22.203Z,6.34
2018-10-04T00:14:50.030Z,6.44
2018-10-04T00:17:17.827Z,6.33
2018-10-04T00:19:45.628Z,6.33
2018-10-04T00:22:13.437Z,6.22
2018-10-04T00:24:41.272Z,6.18
2018-10-04T00:27:09.064Z,6.11
2018-10-04T00:29:36.964Z,6.22
2018-10-04T00:32:04.862Z,6.20
2018-10-04T00:34:32.588Z,6.08
2018-10-04T00:37:00.444Z,6.04
2018-10-04T00:39:28.251Z,6.09
2018-10-04T00:41:56.026Z,6.08
2018-10-04T00:44:23.760Z,6.04
2018-10-04T00:46:51.556Z,5.97
2018-10-04T00:49:19.389Z,5.91
2018-10-04T00:51:47.252Z,5.91
2018-10-04T00:54:15.031Z,5.79
2018-10-04T00:56:42.806Z,5.82
2018-10-04T00:59:10.554Z,5.81
2018-10-04T01:01:38.392Z,5.78
2018-10-04T01:04:06.184Z,5.79
2018-10-04T01:06:33.963Z,5.79
2018-10-04T01:09:01.894Z,5.71
2018-10-04T01:11:29.652Z,5.64
2018-10-04T01:13:57.492Z,5.53
2018-10-04T01:16:25.313Z,5.55
2018-10-04T01:18:56.211Z,5.57
2018-10-04T01:21:24.133Z,5.46
2018-10-04T01:23:52.796Z,5.35
2018-10-04T01:26:20.969Z,5.29
2018-10-04T01:28:49.379Z,5.26
2018-10-04T01:31:17.751Z,5.17
2018-10-04T01:33:45.710Z,5.10
2018-10-04T01:36:13.588Z,5.05
2018-10-04T01:38:41.436Z,5.05
2018-10-04T01:41:09.314Z,5.02
2018-10-04T01:43:37.252Z,5.01
2018-10-04T01:46:05.364Z,5.14
2018-10-04T01:48:33.245Z,5.13
2018-10-04T01:51:01.131Z,5.02
2018-10-04T01:53:28.929Z,5.08
2018-10-04T01:55:56.764Z,5.10
2018-10-04T01:58:24.581Z,5.02
2018-10-04T02:00:52.411Z,5.15
2018-10-04T02:03:20.320Z,5.11
2018-10-04T02:05:48.164Z,5.04
2018-10-04T02:08:16.088Z,5.08
2018-10-04T02:10:43.909Z,5.08
2018-10-04T02:13:11.739Z,5.04
2018-10-04T02:15:39.524Z,4.99
2018-10-04T02:18:07.293Z,4.92
2018-10-04T02:20:35.156Z,4.89
2018-10-04T02:23:02.953Z,4.85
2018-10-04T02:25:31.027Z,4.83
2018-10-04T02:27:58.831Z,4.76
2018-10-04T02:30:26.644Z,4.75
2018-10-04T02:32:54.399Z,4.78
2018-10-04T02:35:22.282Z,4.74
2018-10-04T02:37:50.038Z,4.70
2018-10-04T02:40:17.832Z,4.67
2018-10-04T02:42:45.619Z,4.61
2018-10-04T02:45:13.444Z,4.57
2018-10-04T02:47:41.305Z,4.57
2018-10-04T02:50:09.156Z,4.51
2018-10-04T02:52:36.970Z,4.56
2018-10-04T02:55:11.413Z,4.50
2018-10-04T02:57:39.487Z,4.52
2018-10-04T03:00:07.266Z,4.44
2018-10-04T03:02:35.048Z,4.44
2018-10-04T03:05:02.907Z,4.40
2018-10-04T03:07:30.686Z,4.45
2018-10-04T03:09:58.520Z,4.46
2018-10-04T03:12:26.448Z,4.45
2018-10-04T03:14:54.610Z,4.42
2018-10-04T03:17:22.459Z,4.35
2018-10-04T03:19:52.740Z,4.43
2018-10-04T03:22:20.577Z,4.35
2018-10-04T03:24:48.370Z,4.38
2018-10-04T03:27:16.180Z,4.35
2018-10-04T03:29:43.936Z,4.28
2018-10-04T03:32:11.772Z,4.39
2018-10-04T03:34:39.580Z,4.33
2018-10-04T03:37:07.420Z,4.31
2018-10-04T03:39:35.225Z,4.26
2018-10-04T03:42:03.024Z,4.36
2018-10-04T03:44:30.863Z,4.32
2018-10-04T03:46:58.660Z,4.39
2018-10-04T03:49:26.458Z,4.43
2018-10-04T03:51:54.180Z,4.45
2018-10-04T03:54:22.020Z,4.29
2018-10-04T03:56:49.840Z,4.25
2018-10-04T03:59:17.636Z,4.30
2018-10-04T04:01:48.573Z,4.28
2018-10-04T04:04:16.464Z,4.25
2018-10-04T04:06:44.260Z,4.23
2018-10-04T04:09:12.751Z,4.18
2018-10-04T04:11:40.984Z,4.10
2018-10-04T04:14:08.632Z,4.17
2018-10-04T04:16:36.486Z,4.13
2018-10-04T04:19:04.407Z,4.16
2018-10-04T04:21:32.241Z,4.12
2018-10-04T04:24:00.056Z,4.14
2018-10-04T04:26:27.951Z,4.16
2018-10-04T04:28:57.987Z,4.10
2018-10-04T04:31:25.816Z,4.13
2018-10-04T04:33:53.690Z,4.09
2018-10-04T04:36:21.571Z,4.03
2018-10-04T04:38:49.486Z,4.00
2018-10-04T04:41:17.641Z,3.99
2018-10-04T04:43:45.563Z,3.93
2018-10-04T04:46:13.600Z,3.91
2018-10-04T04:48:41.411Z,3.94
2018-10-04T04:51:09.285Z,3.91
2018-10-04T04:53:38.407Z,3.94
2018-10-04T04:56:06.460Z,3.86
2018-10-04T04:58:34.341Z,3.92
2018-10-04T05:01:02.192Z,3.89
2018-10-04T05:03:30.008Z,3.86
2018-10-04T05:05:57.820Z,3.92
2018-10-04T05:08:25.629Z,3.88
2018-10-04T05:10:53.524Z,3.84
2018-10-04T05:13:21.315Z,3.88
2018-10-04T05:15:49.154Z,3.78
2018-10-04T05:18:16.997Z,3.73
2018-10-04T05:20:44.888Z,3.79
2018-10-04T05:23:12.683Z,3.78
2018-10-04T05:25:40.544Z,3.72
2018-10-04T05:28:08.385Z,3.74
2018-10-04T05:30:36.195Z,3.77
2018-10-04T05:33:04.039Z,3.78
2018-10-04T05:35:31.896Z,3.76
2018-10-04T05:37:59.716Z,3.78
2018-10-04T05:40:27.620Z,3.77
2018-10-04T05:42:55.446Z,3.76
2018-10-04T05:45:23.277Z,3.72
2018-10-04T05:47:51.060Z,3.70
2018-10-04T05:50:18.863Z,3.74
2018-10-04T05:52:46.701Z,3.73
2018-10-04T05:55:15.070Z,3.87
2018-10-04T05:57:42.920Z,3.84
2018-10-04T06:00:41.275Z,3.81
2018-10-04T06:03:09.199Z,3.86
2018-10-04T06:05:37.204Z,3.89
2018-10-04T06:08:05.161Z,3.95
2018-10-04T06:10:33.449Z,3.94
2018-10-04T06:13:01.299Z,4.05
2018-10-04T06:15:29.280Z,4.07
2018-10-04T06:17:57.071Z,4.10
2018-10-04T06:20:26.260Z,4.16
2018-10-04T06:22:54.096Z,4.20
2018-10-04T06:25:21.956Z,4.21
2018-10-04T06:27:49.752Z,4.23
2018-10-04T06:30:17.605Z,4.31
2018-10-04T06:32:45.465Z,4.32
2018-10-04T06:35:13.342Z,4.36
2018-10-04T06:37:44.687Z,4.44
2018-10-04T06:40:12.569Z,4.49
2018-10-04T06:42:40.419Z,4.57
2018-10-04T06:45:08.248Z,4.64
2018-10-04T06:47:36.028Z,4.72
2018-10-04T06:50:04.066Z,4.79
2018-10-04T06:52:31.851Z,4.82
2018-10-04T06:54:59.647Z,4.93
2018-10-04T06:57:27.489Z,5.01
2018-10-04T06:59:59.816Z,5.06
2018-10-04T07:02:27.824Z,5.10
2018-10-04T07:04:55.588Z,5.20
2018-10-04T07:07:23.425Z,5.30
2018-10-04T07:09:51.283Z,5.38
2018-10-04T07:12:19.116Z,5.44
2018-10-04T07:14:46.929Z,5.47
2018-10-04T07:17:14.796Z,5.56
2018-10-04T07:19:42.543Z,5.62
2018-10-04T07:22:10.435Z,5.68
2018-10-04T07:24:38.224Z,5.72
2018-10-04T07:27:06.139Z,5.75
2018-10-04T07:29:33.924Z,5.78
2018-10-04T07:32:01.744Z,5.92
2018-10-04T07:34:29.704Z,6.04
2018-10-04T07:36:57.514Z,6.12
2018-10-04T07:39:26.202Z,6.35
2018-10-04T07:41:57.942Z,6.41
2018-10-04T07:44:25.895Z,6.59
2018-10-04T07:46:53.761Z,6.72
2018-10-04T07:49:21.555Z,6.72
2018-10-04T07:51:49.395Z,6.74
2018-10-04T07:54:17.209Z,6.87
2018-10-04T07:56:45.115Z,6.89
2018-10-04T07:59:12.796Z,7.03
2018-10-04T08:01:40.719Z,6.95
2018-10-04T08:04:08.563Z,7.09
2018-10-04T08:06:36.644Z,7.18
2018-10-04T08:09:06.791Z,7.24
2018-10-04T08:11:34.612Z,7.31
2018-10-04T08:14:02.361Z,7.39
2018-10-04T08:16:30.175Z,7.53
2018-10-04T08:18:58.076Z,7.59
2018-10-04T08:21:25.876Z,7.56
2018-10-04T08:23:53.709Z,7.69
2018-10-04T08:26:21.504Z,7.80
2018-10-04T08:28:49.332Z,7.98
2018-10-04T08:31:17.145Z,8.13
2018-10-04T08:33:44.997Z,8.19
2018-10-04T08:36:12.816Z,8.36
2018-10-04T08:38:40.618Z,8.44
2018-10-04T08:41:08.444Z,8.53
2018-10-04T08:43:36.210Z,8.57
2018-10-04T08:46:04.008Z,8.69
2018-10-04T08:48:31.748Z,8.77
2018-10-04T08:50:59.524Z,8.86
2018-10-04T08:53:27.405Z,8.99
2018-10-04T08:55:55.204Z,9.18
2018-10-04T08:58:22.968Z,9.35
2018-10-04T09:00:50.737Z,9.52
2018-10-04T09:03:19.381Z,9.75
2018-10-04T09:05:47.903Z,9.80
2018-10-04T09:08:19.718Z,9.82
2018-10-04T09:10:47.588Z,9.82
2018-10-04T09:13:15.385Z,9.97
2018-10-04T09:15:43.189Z,9.92
2018-10-04T09:18:11.005Z,10.03
2018-10-04T09:20:38.864Z,10.14
2018-10-04T09:23:06.696Z,10.23
2018-10-04T09:25:34.606Z,10.29
2018-10-04T09:28:02.704Z,10.39
2018-10-04T09:30:36.204Z,10.50
2018-10-04T09:33:04.037Z,10.56
2018-10-04T09:35:31.868Z,10.68
2018-10-04T09:37:59.872Z,10.83
2018-10-04T09:40:27.627Z,10.89
2018-10-04T09:42:55.386Z,11.06
2018-10-04T09:45:23.168Z,11.33
2018-10-04T09:47:55.397Z,11.40
2018-10-04T09:50:27.890Z,11.44
2018-10-04T09:52:56.035Z,11.54
2018-10-04T09:55:23.908Z,11.69
2018-10-04T09:57:51.773Z,11.86
2018-10-04T10:00:25.596Z,11.89
2018-10-04T10:02:54.559Z,12.02
2018-10-04T10:05:22.307Z,12.07
2018-10-04T10:07:50.897Z,12.14
2018-10-04T10:10:18.739Z,12.30
2018-10-04T10:12:46.775Z,12.44
2018-10-04T10:15:14.995Z,12.60
2018-10-04T10:17:42.823Z,12.74
2018-10-04T10:20:11.231Z,12.92
2018-10-04T10:22:39.334Z,13.17
2018-10-04T10:25:07.215Z,13.26
2018-10-04T10:27:35.080Z,13.36
2018-10-04T10:30:02.980Z,13.39
2018-10-04T10:32:34.508Z,13.59
2018-10-04T10:35:02.439Z,13.74
2018-10-04T10:37:30.259Z,13.67
2018-10-04T10:39:58.353Z,13.80
2018-10-04T10:42:26.076Z,14.13
2018-10-04T10:44:53.883Z,14.57
2018-10-04T10:47:21.751Z,15.03
2018-10-04T10:49:49.495Z,15.51
2018-10-04T10:52:17.426Z,16.04
2018-10-04T10:54:45.168Z,16.61
2018-10-04T10:57:12.963Z,17.28
2018-10-04T10:59:40.760Z,17.90
2018-10-04T11:02:08.574Z,18.61
2018-10-04T11:04:36.415Z,18.77
2018-10-04T11:07:04.299Z,19.09
2018-10-04T11:09:32.120Z,19.24
2018-10-04T11:11:59.931Z,19.82
2018-10-04T11:14:27.774Z,20.07
2018-10-04T11:16:55.651Z,20.12
2018-10-04T11:19:23.604Z,20.78
2018-10-04T11:21:51.484Z,21.13
2018-10-04T11:24:19.322Z,21.25
2018-10-04T11:26:47.152Z,21.46
2018-10-04T11:29:14.923Z,21.63
2018-10-04T11:31:42.687Z,21.68
2018-10-04T11:34:10.508Z,21.72
2018-10-04T11:36:39.418Z,22.02
2018-10-04T11:39:09.000Z,22.16
2018-10-04T11:41:37.788Z,22.05
2018-10-04T11:44:11.072Z,21.86
2018-10-04T11:46:38.924Z,21.75
2018-10-04T11:49:06.934Z,21.94
2018-10-04T11:51:34.747Z,21.99
2018-10-04T11:54:02.593Z,21.66
2018-10-04T11:56:30.434Z,22.10
2018-10-04T11:59:01.743Z,21.81
2018-10-04T12:01:29.844Z,21.79
2018-10-04T12:03:57.656Z,21.63
2018-10-04T12:06:25.592Z,21.86
2018-10-04T12:08:53.331Z,21.99
2018-10-04T12:11:21.131Z,21.62
2018-10-04T12:13:49.023Z,21.73
2018-10-04T12:16:16.820Z,21.80
2018-10-04T12:18:44.660Z,21.84
2018-10-04T12:21:12.487Z,21.60
2018-10-04T12:23:40.292Z,21.45
2018-10-04T12:26:08.111Z,21.35
2018-10-04T12:28:35.852Z,21.32
2018-10-04T12:31:03.719Z,21.34
2018-10-04T12:33:31.407Z,20.99
2018-10-04T12:35:59.277Z,20.74
2018-10-04T12:38:27.088Z,20.79
2018-10-04T12:40:54.871Z,20.68
2018-10-04T12:43:22.726Z,20.27
2018-10-04T12:45:50.588Z,20.34
2018-10-04T12:48:18.438Z,20.12
2018-10-04T12:50:46.283Z,20.05
2018-10-04T12:53:14.139Z,19.95
2018-10-04T12:55:41.940Z,19.81
2018-10-04T12:58:09.759Z,19.63
2018-10-04T13:00:37.526Z,19.52
2018-10-04T13:03:05.324Z,19.48
2018-10-04T13:05:33.152Z,19.38
2018-10-04T13:08:00.944Z,19.31
2018-10-04T13:10:28.780Z,19.26
2018-10-04T13:12:56.564Z,19.07
2018-10-04T13:15:24.361Z,19.09
2018-10-04T13:17:52.125Z,19.01
2018-10-04T13:20:19.945Z,18.92
2018-10-04T13:22:47.732Z,18.90
2018-10-04T13:25:15.648Z,18.87
2018-10-04T13:27:43.488Z,18.67
2018-10-04T13:30:11.320Z,18.63
2018-10-04T13:32:39.117Z,18.57
2018-10-04T13:35:06.920Z,18.64
2018-10-04T13:37:34.767Z,18.59
2018-10-04T13:40:02.536Z,18.57
2018-10-04T13:42:30.359Z,18.54
2018-10-04T13:44:58.202Z,18.51
2018-10-04T13:47:25.965Z,18.46
2018-10-04T13:49:53.759Z,18.39
2018-10-04T13:52:21.544Z,18.40
2018-10-04T13:54:50.014Z,18.38
2018-10-04T13:57:17.812Z,18.31
2018-10-04T13:59:45.700Z,18.28
2018-10-04T14:02:13.484Z,18.34
2018-10-04T14:04:41.280Z,18.33
2018-10-04T14:07:09.087Z,18.34
2018-10-04T14:09:36.920Z,18.26
2018-10-04T14:12:04.764Z,18.24
2018-10-04T14:14:32.564Z,18.21
2018-10-04T14:17:00.360Z,18.17
2018-10-04T14:19:28.226Z,18.13
2018-10-04T14:21:56.076Z,18.16
2018-10-04T14:24:23.848Z,18.15
2018-10-04T14:26:51.664Z,18.11
2018-10-04T14:29:19.539Z,18.14
2018-10-04T14:31:47.388Z,18.08
2018-10-04T14:34:15.268Z,18.11
2018-10-04T14:36:42.996Z,18.09
2018-10-04T14:39:10.881Z,18.08
2018-10-04T14:41:38.648Z,18.09
2018-10-04T14:44:06.492Z,18.14
2018-10-04T14:46:34.336Z,18.06
2018-10-04T14:49:02.169Z,18.10
2018-10-04T14:51:29.959Z,18.07
2018-10-04T14:54:01.532Z,18.06
2018-10-04T14:56:29.385Z,18.08
2018-10-04T14:58:57.223Z,18.05
2018-10-04T15:01:25.000Z,17.99
2018-10-04T15:03:52.835Z,18.00
2018-10-04T15:06:20.544Z,18.04
2018-10-04T15:08:48.343Z,18.03
2018-10-04T15:11:16.119Z,17.94
2018-10-04T15:13:43.899Z,17.90
2018-10-04T15:16:15.378Z,17.85
2018-10-04T15:18:43.176Z,17.92
2018-10-04T15:21:11.031Z,17.92
2018-10-04T15:23:38.809Z,17.85
2018-10-04T15:26:06.743Z,17.79
2018-10-04T15:28:34.553Z,17.76
2018-10-04T15:31:02.453Z,17.70
2018-10-04T15:33:30.236Z,17.68
2018-10-04T15:35:58.024Z,17.72
2018-10-04T15:38:25.927Z,17.69
2018-10-04T15:40:53.685Z,17.66
2018-10-04T15:43:21.464Z,17.56
2018-10-04T15:45:49.255Z,17.53
2018-10-04T15:48:17.108Z,17.46
2018-10-04T15:50:44.887Z,17.40
2018-10-04T15:53:12.728Z,17.38
2018-10-04T15:55:40.464Z,17.29
2018-10-04T15:58:08.268Z,17.25
2018-10-04T16:00:36.143Z,17.23
2018-10-04T16:03:03.900Z,17.17
2018-10-04T16:05:31.717Z,17.12
2018-10-04T16:07:59.508Z,17.01
2018-10-04T16:10:27.322Z,16.90
2018-10-04T16:12:55.085Z,16.90
2018-10-04T16:15:26.555Z,16.81
2018-10-04T16:17:54.326Z,16.85
2018-10-04T16:20:22.060Z,16.79
2018-10-04T16:22:49.829Z,16.73
2018-10-04T16:25:17.600Z,16.63
2018-10-04T16:27:47.327Z,16.60
2018-10-04T16:30:15.843Z,16.40
2018-10-04T16:32:44.198Z,16.34
2018-10-04T16:35:12.154Z,16.29
2018-10-04T16:37:40.661Z,16.28
2018-10-04T16:40:08.708Z,16.17
2018-10-04T16:42:36.591Z,16.05
2018-10-04T16:45:04.490Z,15.98
2018-10-04T16:47:32.226Z,15.86
2018-10-04T16:50:00.064Z,15.76
2018-10-04T16:52:27.881Z,15.63
2018-10-04T16:54:55.688Z,15.51
2018-10-04T16:57:23.452Z,15.40
2018-10-04T16:59:51.322Z,15.26
2018-10-04T17:02:19.094Z,15.20
2018-10-04T17:04:46.879Z,15.19
2018-10-04T17:07:14.752Z,15.27
2018-10-04T17:09:42.574Z,15.07
2018-10-04T17:12:10.368Z,14.89
2018-10-04T17:14:38.144Z,14.79
2018-10-04T17:17:05.950Z,14.69
2018-10-04T17:19:33.703Z,14.70
2018-10-04T17:22:01.468Z,14.59
2018-10-04T17:24:29.627Z,14.63
2018-10-04T17:26:57.403Z,14.46
2018-10-04T17:29:25.251Z,14.27
2018-10-04T17:31:53.034Z,14.32
2018-10-04T17:34:20.884Z,14.12
2018-10-04T17:36:49.459Z,14.14
2018-10-04T17:39:17.236Z,13.98
2018-10-04T17:41:45.156Z,13.86
2018-10-04T17:44:12.953Z,13.81
2018-10-04T17:46:40.788Z,13.66
2018-10-04T17:49:08.648Z,13.60
2018-10-04T17:51:36.435Z,13.50
2018-10-04T17:54:04.342Z,13.51
2018-10-04T17:56:32.060Z,13.43
2018-10-04T17:58:59.800Z,13.43
2018-10-04T18:01:27.597Z,13.13
2018-10-04T18:03:55.453Z,13.14
2018-10-04T18:06:23.291Z,13.22
2018-10-04T18:08:51.128Z,13.13
2018-10-04T18:11:19.236Z,13.02
2018-10-04T18:13:47.182Z,13.00
2018-10-04T18:16:14.952Z,12.92
2018-10-04T18:18:42.729Z,12.82
2018-10-04T18:21:10.700Z,12.68
2018-10-04T18:23:38.563Z,12.54
2018-10-04T18:26:06.659Z,12.52
2018-10-04T18:28:34.484Z,12.34
2018-10-04T18:31:03.163Z,12.48
2018-10-04T18:33:30.931Z,12.43
2018-10-04T18:35:58.744Z,12.26
2018-10-04T18:38:26.577Z,12.26
2018-10-04T18:40:54.343Z,12.17
2018-10-04T18:43:22.179Z,12.07
2018-10-04T18:45:50.004Z,12.16
2018-10-04T18:48:17.779Z,12.19
2018-10-04T18:50:45.600Z,12.09
2018-10-04T18:53:13.443Z,12.00
2018-10-04T18:55:41.236Z,11.91
2018-10-04T18:58:09.008Z,11.91
2018-10-04T19:00:36.784Z,11.78
2018-10-04T19:03:04.552Z,11.67
2018-10-04T19:05:32.531Z,11.61
2018-10-04T19:08:00.430Z,11.40
2018-10-04T19:10:28.192Z,11.19
2018-10-04T19:12:55.945Z,11.26
2018-10-04T19:15:23.700Z,11.27
2018-10-04T19:17:51.551Z,11.15
2018-10-04T19:20:19.385Z,11.30
2018-10-04T19:22:47.163Z,11.27
2018-10-04T19:25:15.040Z,11.29
2018-10-04T19:27:43.063Z,11.14
2018-10-04T19:30:10.946Z,10.93
2018-10-04T19:32:38.759Z,10.88
2018-10-04T19:35:10.031Z,10.83
2018-10-04T19:37:37.908Z,10.74
2018-10-04T19:40:05.993Z,10.92
2018-10-04T19:42:33.860Z,10.88
2018-10-04T19:45:01.620Z,10.89
2018-10-04T19:47:29.491Z,10.85
2018-10-04T19:49:57.320Z,10.72
2018-10-04T19:52:25.143Z,10.72
2018-10-04T19:54:52.930Z,10.65
2018-10-04T19:57:20.752Z,10.78
2018-10-04T19:59:48.537Z,10.78
2018-10-04T20:02:16.376Z,10.72
2018-10-04T20:04:44.084Z,10.64
2018-10-04T20:07:11.894Z,10.57
2018-10-04T20:09:39.940Z,10.55
2018-10-04T20:12:07.688Z,10.45
2018-10-04T20:14:35.515Z,10.30
2018-10-04T20:17:03.380Z,10.16
2018-10-04T20:19:31.523Z,10.34
2018-10-04T20:21:59.320Z,10.26
2018-10-04T20:24:27.200Z,10.18
2018-10-04T20:26:55.017Z,10.22
2018-10-04T20:29:22.811Z,10.11
2018-10-04T20:31:50.626Z,9.88
2018-10-04T20:34:18.351Z,9.95
2018-10-04T20:36:46.224Z,9.99
2018-10-04T20:39:13.988Z,9.96
2018-10-04T20:41:41.799Z,9.92
2018-10-04T20:44:09.650Z,9.87
2018-10-04T20:46:37.472Z,9.80
2018-10-04T20:49:05.336Z,9.85
2018-10-04T20:51:33.108Z,9.78
2018-10-04T20:54:00.914Z,9.73
2018-10-04T20:56:28.738Z,9.65
2018-10-04T20:58:56.606Z,9.53
2018-10-04T21:01:24.384Z,9.41
2018-10-04T21:03:52.316Z,9.43
2018-10-04T21:06:20.128Z,9.49
2018-10-04T21:08:47.937Z,9.44
2018-10-04T21:11:15.753Z,9.39
2018-10-04T21:13:43.572Z,9.44
2018-10-04T21:16:11.360Z,9.29
2018-10-04T21:18:39.192Z,9.32
2018-10-04T21:21:07.065Z,9.17
2018-10-04T21:23:34.977Z,9.16
2018-10-04T21:26:02.869Z,9.32
2018-10-04T21:28:30.676Z,9.16
2018-10-04T21:30:58.456Z,9.08
2018-10-04T21:33:26.252Z,9.06
2018-10-04T21:36:00.749Z,9.07
2018-10-04T21:38:28.562Z,9.03
2018-10-04T21:40:56.456Z,9.02
2018-10-04T21:43:29.590Z,8.96
2018-10-04T21:45:57.599Z,8.81
2018-10-04T21:48:25.396Z,8.76
2018-10-04T21:50:53.232Z,8.83
2018-10-04T21:53:20.991Z,8.70
2018-10-04T21:55:48.853Z,8.53
2018-10-04T21:58:16.644Z,8.71
2018-10-04T22:00:50.252Z,8.67
2018-10-04T22:03:18.017Z,8.59
2018-10-04T22:05:45.787Z,8.46
2018-10-04T22:08:13.524Z,8.52
2018-10-04T22:10:41.354Z,8.42
2018-10-04T22:13:09.215Z,8.39
2018-10-04T22:15:36.972Z,8.42
2018-10-04T22:18:04.980Z,8.31
2018-10-04T22:20:32.831Z,8.28
2018-10-04T22:23:00.682Z,8.30
2018-10-04T22:25:28.441Z,8.17
2018-10-04T22:27:56.193Z,8.23
2018-10-04T22:30:23.983Z,8.17
2018-10-04T22:32:51.698Z,8.14
2018-10-04T22:35:19.519Z,8.08
2018-10-04T22:37:47.295Z,8.06
2018-10-04T22:40:15.068Z,8.08
2018-10-04T22:42:42.852Z,8.07
2018-10-04T22:45:10.652Z,8.07
2018-10-04T22:47:38.501Z,8.00
2018-10-04T22:50:06.936Z,8.04
2018-10-04T22:52:34.700Z,8.01
2018-10-04T22:55:02.504Z,8.16
2018-10-04T22:57:30.316Z,7.98
2018-10-04T22:59:58.096Z,7.85
2018-10-04T23:02:25.929Z,7.86
2018-10-04T23:04:53.704Z,7.84
2018-10-04T23:07:21.536Z,7.82
2018-10-04T23:09:49.304Z,7.85
2018-10-04T23:12:17.123Z,7.83
2018-10-04T23:14:44.915Z,7.76
2018-10-04T23:17:12.739Z,7.66
2018-10-04T23:19:40.516Z,7.66
2018-10-04T23:22:08.351Z,7.63
2018-10-04T23:24:36.268Z,7.75
2018-10-04T23:27:04.110Z,7.65
2018-10-04T23:29:31.892Z,7.58
2018-10-04T23:31:59.798Z,7.54
2018-10-04T23:34:27.610Z,7.47
2018-10-04T23:36:55.411Z,7.47
2018-10-04T23:39:23.160Z,7.39
2018-10-04T23:41:50.932Z,7.52
2018-10-04T23:44:18.745Z,7.39
2018-10-04T23:46:46.495Z,7.36
2018-10-04T23:49:14.356Z,7.33
2018-10-04T23:51:42.211Z,7.30
2018-10-04T23:54:09.993Z,7.32
2018-10-04T23:56:37.790Z,7.31
2018-10-04T23:59:05.837Z,7.22
